createdAt,value
2022-11-19T00:02:08.324Z,3.12
2022-11-19T00:04:37.234Z,3.13
2022-11-19T00:07:06.083Z,3.11
2022-11-19T00:09:34.469Z,3.09
2022-11-19T00:12:20.111Z,3.09
2022-11-19T00:14:49.003Z,3.05
2022-11-19T00:17:19.176Z,3.04
2022-11-19T00:19:47.647Z,3.02
2022-11-19T00:22:16.211Z,3.04
2022-11-19T00:24:44.764Z,3.03
2022-11-19T00:27:13.686Z,2.98
2022-11-19T00:29:42.262Z,2.99
2022-11-19T00:32:12.261Z,2.96
2022-11-19T00:34:42.470Z,2.93
2022-11-19T00:37:10.851Z,2.93
2022-11-19T00:39:39.264Z,2.91
2022-11-19T00:42:08.144Z,2.96
2022-11-19T00:44:37.609Z,2.95
2022-11-19T00:47:06.698Z,2.96
2022-11-19T00:49:35.412Z,2.98
2022-11-19T00:52:06.087Z,3.02
2022-11-19T00:54:34.625Z,3.02
2022-11-19T00:57:03.362Z,3.06
2022-11-19T00:59:31.957Z,3.06
2022-11-19T01:02:00.758Z,3.09
2022-11-19T01:04:29.599Z,3.09
2022-11-19T01:06:58.110Z,3.15
2022-11-19T01:09:29.701Z,3.14
2022-11-19T01:11:58.296Z,3.12
2022-11-19T01:14:27.621Z,3.11
2022-11-19T01:16:56.446Z,3.07
2022-11-19T01:19:25.212Z,3.04
2022-11-19T01:21:54.204Z,3.00
2022-11-19T01:24:22.841Z,2.98
2022-11-19T01:26:54.703Z,2.98
2022-11-19T01:29:23.464Z,2.97
2022-11-19T01:31:52.271Z,2.92
2022-11-19T01:34:20.807Z,2.89
2022-11-19T01:36:49.291Z,2.83
2022-11-19T01:39:20.204Z,2.83
2022-11-19T01:41:49.023Z,2.83
2022-11-19T01:45:00.721Z,2.80
2022-11-19T01:47:29.398Z,2.75
2022-11-19T01:49:58.001Z,2.74
2022-11-19T01:52:27.047Z,2.73
2022-11-19T01:54:57.168Z,2.69
2022-11-19T01:57:26.051Z,2.68
2022-11-19T01:59:56.660Z,2.69
2022-11-19T02:02:26.613Z,2.70
2022-11-19T02:04:57.472Z,2.67
2022-11-19T02:07:29.746Z,2.68
2022-11-19T02:09:59.480Z,2.68
2022-11-19T02:12:38.445Z,2.64
2022-11-19T02:15:21.985Z,2.62
2022-11-19T02:18:19.489Z,2.62
2022-11-19T02:21:00.788Z,2.61
2022-11-19T02:23:55.425Z,2.58
2022-11-19T02:26:50.318Z,2.54
2022-11-19T02:29:40.930Z,2.54
2022-11-19T02:32:16.200Z,2.52
2022-11-19T02:34:52.431Z,2.53
2022-11-19T02:37:30.131Z,2.46
2022-11-19T02:40:07.863Z,2.43
2022-11-19T02:42:39.963Z,2.51
2022-11-19T02:45:15.860Z,2.53
2022-11-19T02:47:48.733Z,2.57
2022-11-19T02:50:21.503Z,2.57
2022-11-19T02:52:50.909Z,2.55
2022-11-19T02:55:22.146Z,2.54
2022-11-19T02:57:56.132Z,2.54
2022-11-19T03:00:45.163Z,2.52
2022-11-19T03:03:35.684Z,2.53
2022-11-19T03:06:11.087Z,2.56
2022-11-19T03:08:40.257Z,2.59
2022-11-19T03:11:18.658Z,2.59
2022-11-19T03:14:14.113Z,2.57
2022-11-19T03:16:52.742Z,2.54
2022-11-19T03:19:39.661Z,2.49
2022-11-19T03:22:14.239Z,2.44
2022-11-19T03:24:47.613Z,2.41
2022-11-19T03:27:22.181Z,2.38
2022-11-19T03:29:54.676Z,2.37
2022-11-19T03:32:29.340Z,2.38
2022-11-19T03:35:03.243Z,2.39
2022-11-19T03:37:35.175Z,2.40
2022-11-19T03:40:05.678Z,2.41
2022-11-19T03:42:35.818Z,2.46
2022-11-19T03:45:09.934Z,2.48
2022-11-19T03:47:43.311Z,2.46
2022-11-19T03:50:19.078Z,2.42
2022-11-19T03:52:47.527Z,2.40
2022-11-19T03:55:17.236Z,2.39
2022-11-19T03:57:46.606Z,2.39
2022-11-19T04:00:16.265Z,2.38
2022-11-19T04:02:46.477Z,2.39
2022-11-19T04:05:15.847Z,2.40
2022-11-19T04:07:44.457Z,2.41
2022-11-19T04:10:13.099Z,2.42
2022-11-19T04:12:41.638Z,2.42
2022-11-19T04:15:13.100Z,2.42
2022-11-19T04:17:42.273Z,2.39
2022-11-19T04:20:13.171Z,2.37
2022-11-19T04:22:42.344Z,2.34
2022-11-19T04:25:11.775Z,2.30
2022-11-19T04:27:40.314Z,2.31
2022-11-19T04:30:10.565Z,2.29
2022-11-19T04:32:39.292Z,2.27
2022-11-19T04:35:07.899Z,2.26
2022-11-19T04:37:38.284Z,2.25
2022-11-19T04:40:09.226Z,2.25
2022-11-19T04:42:37.651Z,2.25
2022-11-19T04:45:06.817Z,2.25
2022-11-19T04:47:35.412Z,2.24
2022-11-19T04:50:04.337Z,2.23
2022-11-19T04:52:39.244Z,2.22
2022-11-19T04:55:11.985Z,2.19
2022-11-19T04:57:40.544Z,2.18
2022-11-19T05:00:11.546Z,2.17
2022-11-19T05:02:40.340Z,2.17
2022-11-19T05:05:10.406Z,2.16
2022-11-19T05:07:39.257Z,2.12
2022-11-19T05:10:08.414Z,2.09
2022-11-19T05:12:38.254Z,2.07
2022-11-19T05:15:07.937Z,2.10
2022-11-19T05:17:36.576Z,2.07
2022-11-19T05:20:05.826Z,2.00
2022-11-19T05:22:34.419Z,1.93
2022-11-19T05:25:02.805Z,1.86
2022-11-19T05:27:34.698Z,1.82
2022-11-19T05:30:05.471Z,1.74
2022-11-19T05:32:36.905Z,1.73
2022-11-19T05:35:05.431Z,1.67
2022-11-19T05:37:34.095Z,1.65
2022-11-19T05:40:02.747Z,1.70
2022-11-19T05:42:31.179Z,1.72
2022-11-19T05:44:59.619Z,1.79
2022-11-19T05:47:30.062Z,1.81
2022-11-19T05:49:58.659Z,1.83
2022-11-19T05:52:27.186Z,1.85
2022-11-19T05:54:55.624Z,1.84
2022-11-19T05:57:24.265Z,1.85
2022-11-19T05:59:52.713Z,1.86
2022-11-19T06:02:21.599Z,1.85
2022-11-19T06:04:51.981Z,1.83
2022-11-19T06:07:20.851Z,1.82
2022-11-19T06:09:49.331Z,1.81
2022-11-19T06:12:19.043Z,1.73
2022-11-19T06:14:47.867Z,1.61
2022-11-19T06:17:16.430Z,1.54
2022-11-19T06:19:45.007Z,1.58
2022-11-19T06:22:15.183Z,1.55
2022-11-19T06:24:43.544Z,1.50
2022-11-19T06:27:12.091Z,1.51
2022-11-19T06:29:40.677Z,1.56
2022-11-19T06:32:09.442Z,1.58
2022-11-19T06:34:37.820Z,1.61
2022-11-19T06:37:06.392Z,1.66
2022-11-19T06:39:36.710Z,1.73
2022-11-19T06:42:19.718Z,1.78
2022-11-19T06:44:48.121Z,1.82
2022-11-19T06:47:16.623Z,1.81
2022-11-19T06:49:45.304Z,1.79
2022-11-19T06:52:14.144Z,1.72
2022-11-19T06:54:44.040Z,1.62
2022-11-19T06:57:12.514Z,1.49
2022-11-19T06:59:41.040Z,1.40
2022-11-19T07:02:12.436Z,1.35
2022-11-19T07:04:41.132Z,1.27
2022-11-19T07:07:11.327Z,1.22
2022-11-19T07:09:40.394Z,1.20
2022-11-19T07:12:11.027Z,1.17
2022-11-19T07:14:39.962Z,1.13
2022-11-19T07:17:08.805Z,1.09
2022-11-19T07:19:37.424Z,1.09
2022-11-19T07:22:05.972Z,1.11
2022-11-19T07:24:34.752Z,1.13
2022-11-19T07:27:03.601Z,1.12
2022-11-19T07:29:33.821Z,1.14
2022-11-19T07:32:03.052Z,1.16
2022-11-19T07:34:31.647Z,1.14
2022-11-19T07:37:00.512Z,1.12
2022-11-19T07:39:29.867Z,1.10
2022-11-19T07:42:15.351Z,1.10
2022-11-19T07:44:45.220Z,1.09
2022-11-19T07:47:13.982Z,1.05
2022-11-19T07:49:42.566Z,1.05
2022-11-19T07:52:11.330Z,1.03
2022-11-19T07:54:40.008Z,0.98
2022-11-19T07:57:08.639Z,0.98
2022-11-19T07:59:37.188Z,0.99
2022-11-19T08:02:07.732Z,1.01
2022-11-19T08:04:36.481Z,1.03
2022-11-19T08:07:05.120Z,1.03
2022-11-19T08:09:33.659Z,1.02
2022-11-19T08:12:02.563Z,1.09
2022-11-19T08:14:31.008Z,1.15
2022-11-19T08:17:16.753Z,1.23
2022-11-19T08:19:46.722Z,1.31
2022-11-19T08:22:15.538Z,1.36
2022-11-19T08:24:44.397Z,1.40
2022-11-19T08:27:13.612Z,1.47
2022-11-19T08:29:42.120Z,1.56
2022-11-19T08:32:11.018Z,1.74
2022-11-19T08:34:39.432Z,2.03
2022-11-19T08:37:11.576Z,2.21
2022-11-19T08:39:40.126Z,2.32
2022-11-19T08:42:26.356Z,2.47
2022-11-19T08:44:55.149Z,2.60
2022-11-19T08:47:23.756Z,2.79
2022-11-19T08:49:52.745Z,2.77
2022-11-19T08:52:22.729Z,2.68
2022-11-19T08:54:51.307Z,2.59
2022-11-19T08:57:20.469Z,2.51
2022-11-19T08:59:49.085Z,2.48
2022-11-19T09:02:17.607Z,2.47
2022-11-19T09:04:47.057Z,2.49
2022-11-19T09:07:15.756Z,2.52
2022-11-19T09:09:45.998Z,2.57
2022-11-19T09:12:14.833Z,2.61
2022-11-19T09:14:43.252Z,2.65
2022-11-19T09:17:11.607Z,2.73
2022-11-19T09:19:40.092Z,2.82
2022-11-19T09:22:08.620Z,2.91
2022-11-19T09:24:37.067Z,3.04
2022-11-19T09:27:06.978Z,3.19
2022-11-19T09:29:35.813Z,3.59
2022-11-19T09:32:04.477Z,3.97
2022-11-19T09:34:35.357Z,4.34
2022-11-19T09:37:03.873Z,4.89
2022-11-19T09:39:32.450Z,5.49
2022-11-19T09:42:16.508Z,5.75
2022-11-19T09:45:04.917Z,5.29
2022-11-19T09:47:54.333Z,5.19
2022-11-19T09:50:26.347Z,5.17
2022-11-19T09:53:00.751Z,5.02
2022-11-19T09:55:33.706Z,4.90
2022-11-19T09:58:07.500Z,4.82
2022-11-19T10:00:36.054Z,4.84
2022-11-19T10:03:15.246Z,4.66
2022-11-19T10:05:56.216Z,5.43
2022-11-19T10:08:37.995Z,6.25
2022-11-19T10:11:21.555Z,6.96
2022-11-19T10:13:59.982Z,6.73
2022-11-19T10:16:42.614Z,6.16
2022-11-19T10:19:22.620Z,5.80
2022-11-19T10:22:02.711Z,5.62
2022-11-19T10:24:40.737Z,5.45
2022-11-19T10:27:19.639Z,5.35
2022-11-19T10:29:55.630Z,5.33
2022-11-19T10:32:31.986Z,5.26
2022-11-19T10:35:06.753Z,5.25
2022-11-19T10:37:40.450Z,5.28
2022-11-19T10:40:15.826Z,5.30
2022-11-19T10:42:48.894Z,5.31
2022-11-19T10:45:21.056Z,5.42
2022-11-19T10:47:53.567Z,5.55
2022-11-19T10:50:24.749Z,5.65
2022-11-19T10:52:57.099Z,5.57
2022-11-19T10:55:28.877Z,5.55
2022-11-19T10:58:08.649Z,5.49
2022-11-19T11:00:42.336Z,5.45
2022-11-19T11:03:20.348Z,5.44
2022-11-19T11:05:58.259Z,5.45
2022-11-19T11:08:27.091Z,5.47
2022-11-19T11:10:55.624Z,5.52
2022-11-19T11:13:56.209Z,5.58
2022-11-19T11:16:33.820Z,5.70
2022-11-19T11:19:05.174Z,5.77
2022-11-19T11:21:38.466Z,5.89
2022-11-19T11:24:08.952Z,5.95
2022-11-19T11:26:38.363Z,6.02
2022-11-19T11:29:09.830Z,6.06
2022-11-19T11:31:42.370Z,6.10
2022-11-19T11:34:29.651Z,6.20
2022-11-19T11:37:00.041Z,6.26
2022-11-19T11:39:31.916Z,6.31
2022-11-19T11:42:06.582Z,6.38
2022-11-19T11:44:38.560Z,6.47
2022-11-19T11:47:15.913Z,6.54
2022-11-19T11:49:47.074Z,6.57
2022-11-19T11:52:21.314Z,6.67
2022-11-19T11:54:58.871Z,6.78
2022-11-19T11:57:31.321Z,6.82
2022-11-19T12:00:00.417Z,6.87
2022-11-19T12:02:33.101Z,6.94
2022-11-19T12:05:03.959Z,7.18
2022-11-19T12:08:05.865Z,7.27
2022-11-19T12:10:45.563Z,7.39
2022-11-19T12:13:48.462Z,7.51
2022-11-19T12:16:29.644Z,7.61
2022-11-19T12:19:11.538Z,7.70
2022-11-19T12:21:50.474Z,7.70
2022-11-19T12:24:36.079Z,7.68
2022-11-19T12:27:16.210Z,7.64
2022-11-19T12:29:58.173Z,7.59
2022-11-19T12:32:49.493Z,7.59
2022-11-19T12:35:36.673Z,7.63
2022-11-19T12:38:27.619Z,7.59
2022-11-19T12:41:08.585Z,7.55
2022-11-19T12:43:55.224Z,7.56
2022-11-19T12:46:33.274Z,7.58
2022-11-19T12:49:30.498Z,7.62
2022-11-19T12:52:06.880Z,7.60
2022-11-19T12:54:48.964Z,7.56
2022-11-19T12:57:33.480Z,7.60
2022-11-19T13:00:15.665Z,7.56
2022-11-19T13:03:02.613Z,7.56
2022-11-19T13:05:42.221Z,7.55
2022-11-19T13:08:20.128Z,7.57
2022-11-19T13:10:52.386Z,7.63
2022-11-19T13:13:26.502Z,7.69
2022-11-19T13:16:01.562Z,7.79
2022-11-19T13:18:34.128Z,7.80
2022-11-19T13:21:05.634Z,7.82
2022-11-19T13:23:40.653Z,7.87
2022-11-19T13:26:14.733Z,7.93
2022-11-19T13:28:48.375Z,7.92
2022-11-19T13:31:30.344Z,7.98
2022-11-19T13:34:02.714Z,7.97
2022-11-19T13:36:37.116Z,7.98
2022-11-19T13:39:16.427Z,7.95
2022-11-19T13:42:07.889Z,8.03
2022-11-19T13:44:41.779Z,7.98
2022-11-19T13:47:19.507Z,7.93
2022-11-19T13:49:52.158Z,8.00
2022-11-19T13:52:27.744Z,8.00
2022-11-19T13:54:59.030Z,7.95
2022-11-19T13:57:32.542Z,7.98
2022-11-19T14:00:05.207Z,8.04
2022-11-19T14:02:55.248Z,8.14
2022-11-19T14:06:02.651Z,8.14
2022-11-19T14:08:48.641Z,8.16
2022-11-19T14:11:33.594Z,8.22
2022-11-19T14:14:50.203Z,8.19
2022-11-19T14:17:46.174Z,8.21
2022-11-19T14:20:52.709Z,8.13
2022-11-19T14:24:03.138Z,8.08
2022-11-19T14:27:04.385Z,8.03
2022-11-19T14:29:56.282Z,8.03
2022-11-19T14:32:36.794Z,8.01
2022-11-19T14:35:43.811Z,7.99
2022-11-19T14:38:33.498Z,7.95
2022-11-19T14:41:16.094Z,7.94
2022-11-19T14:44:13.653Z,8.00
2022-11-19T14:46:45.981Z,8.01
2022-11-19T14:49:27.838Z,8.01
2022-11-19T14:51:58.320Z,8.03
2022-11-19T14:54:39.316Z,7.98
2022-11-19T14:57:16.952Z,7.94
2022-11-19T14:59:53.734Z,7.91
2022-11-19T15:02:27.455Z,7.87
2022-11-19T15:05:05.033Z,7.90
2022-11-19T15:07:44.201Z,7.87
2022-11-19T15:10:35.123Z,7.80
2022-11-19T15:13:18.820Z,7.71
2022-11-19T15:15:51.012Z,7.79
2022-11-19T15:18:41.131Z,7.75
2022-11-19T15:21:24.547Z,7.71
2022-11-19T15:24:07.142Z,7.69
2022-11-19T15:26:46.841Z,7.66
2022-11-19T15:29:25.877Z,7.61
2022-11-19T15:32:22.332Z,7.77
2022-11-19T15:35:19.364Z,7.70
2022-11-19T15:37:52.278Z,7.68
2022-11-19T15:40:24.777Z,7.68
2022-11-19T15:43:03.569Z,7.75
2022-11-19T15:45:38.945Z,7.68
2022-11-19T15:48:15.213Z,7.64
2022-11-19T15:50:44.922Z,7.58
2022-11-19T15:53:19.916Z,7.60
2022-11-19T15:55:53.724Z,7.55
2022-11-19T15:59:13.141Z,7.54
2022-11-19T16:01:42.992Z,7.44
2022-11-19T16:04:18.362Z,7.41
2022-11-19T16:06:52.430Z,7.50
2022-11-19T16:09:26.161Z,7.44
2022-11-19T16:12:14.536Z,7.54
2022-11-19T16:15:00.235Z,7.43
2022-11-19T16:17:42.988Z,7.43
2022-11-19T16:20:22.245Z,7.38
2022-11-19T16:23:00.029Z,7.45
2022-11-19T16:25:34.589Z,7.46
2022-11-19T16:28:06.780Z,7.38
2022-11-19T16:30:46.488Z,7.39
2022-11-19T16:33:18.616Z,7.36
2022-11-19T16:35:52.944Z,7.31
2022-11-19T16:38:26.890Z,7.37
2022-11-19T16:41:13.858Z,7.33
2022-11-19T16:43:45.337Z,7.24
2022-11-19T16:46:17.199Z,7.20
2022-11-19T16:48:58.080Z,7.10
2022-11-19T16:51:35.359Z,6.97
2022-11-19T16:54:05.292Z,6.87
2022-11-19T16:56:44.588Z,6.98
2022-11-19T16:59:21.996Z,6.91
2022-11-19T17:01:56.501Z,6.78
2022-11-19T17:04:29.072Z,6.75
2022-11-19T17:07:00.860Z,6.73
2022-11-19T17:09:41.732Z,6.68
2022-11-19T17:12:27.345Z,6.64
2022-11-19T17:15:01.184Z,6.61
2022-11-19T17:17:40.610Z,6.55
2022-11-19T17:21:01.091Z,6.56
2022-11-19T17:23:33.391Z,6.58
2022-11-19T17:26:04.869Z,6.67
2022-11-19T17:28:41.050Z,6.76
2022-11-19T17:31:17.832Z,6.76
2022-11-19T17:33:52.613Z,6.82
2022-11-19T17:36:22.450Z,6.80
2022-11-19T17:38:52.905Z,6.84
2022-11-19T17:41:38.557Z,6.76
2022-11-19T17:44:31.028Z,6.72
2022-11-19T17:46:59.498Z,6.69
2022-11-19T17:49:27.821Z,6.73
2022-11-19T17:51:56.885Z,6.75
2022-11-19T17:54:26.876Z,6.77
2022-11-19T17:56:55.354Z,6.77
2022-11-19T17:59:23.753Z,6.83
2022-11-19T18:01:52.715Z,6.87
2022-11-19T18:04:21.325Z,6.88
2022-11-19T18:06:50.108Z,6.99
2022-11-19T18:09:19.583Z,7.09
2022-11-19T18:11:49.709Z,7.04
2022-11-19T18:14:18.221Z,7.07
2022-11-19T18:16:46.686Z,7.06
2022-11-19T18:19:24.364Z,7.15
2022-11-19T18:21:53.546Z,7.07
2022-11-19T18:24:22.584Z,7.17
2022-11-19T18:26:52.498Z,7.26
2022-11-19T18:29:21.428Z,7.19
2022-11-19T18:31:53.464Z,7.19
2022-11-19T18:34:25.648Z,7.12
2022-11-19T18:36:54.603Z,7.10
2022-11-19T18:39:23.920Z,7.11
2022-11-19T18:41:54.260Z,7.09
2022-11-19T18:44:33.942Z,7.10
2022-11-19T18:47:04.018Z,7.18
2022-11-19T18:49:33.773Z,7.13
2022-11-19T18:52:02.596Z,7.08
2022-11-19T18:54:30.976Z,7.02
2022-11-19T18:57:01.554Z,7.00
2022-11-19T18:59:30.454Z,7.02
2022-11-19T19:01:59.118Z,6.99
2022-11-19T19:04:27.825Z,6.97
2022-11-19T19:06:56.481Z,6.93
2022-11-19T19:09:25.721Z,6.95
2022-11-19T19:12:13.831Z,7.04
2022-11-19T19:14:45.337Z,7.08
2022-11-19T19:17:14.805Z,7.10
2022-11-19T19:19:43.468Z,7.08
2022-11-19T19:22:12.090Z,7.14
2022-11-19T19:24:40.963Z,7.24
2022-11-19T19:27:09.598Z,7.18
2022-11-19T19:29:39.798Z,7.30
2022-11-19T19:32:10.166Z,7.29
2022-11-19T19:34:38.580Z,7.34
2022-11-19T19:37:07.525Z,7.51
2022-11-19T19:39:35.981Z,7.67
2022-11-19T19:42:04.466Z,7.56
2022-11-19T19:44:32.777Z,7.46
2022-11-19T19:47:01.139Z,7.31
2022-11-19T19:49:33.478Z,7.23
2022-11-19T19:52:06.216Z,7.16
2022-11-19T19:54:34.717Z,7.13
2022-11-19T19:57:03.225Z,7.42
2022-11-19T19:59:31.753Z,7.48
2022-11-19T20:02:00.239Z,7.47
2022-11-19T20:04:30.600Z,7.42
2022-11-19T20:06:59.081Z,7.45
2022-11-19T20:09:27.752Z,7.46
2022-11-19T20:11:56.556Z,7.47
2022-11-19T20:14:25.063Z,7.49
2022-11-19T20:16:53.938Z,7.43
2022-11-19T20:19:22.822Z,7.43
2022-11-19T20:21:54.726Z,7.47
2022-11-19T20:24:23.173Z,7.55
2022-11-19T20:26:52.130Z,7.54
2022-11-19T20:29:22.274Z,7.65
2022-11-19T20:31:52.103Z,7.70
2022-11-19T20:34:21.076Z,7.77
2022-11-19T20:36:49.928Z,7.81
2022-11-19T20:39:19.979Z,7.82
2022-11-19T20:42:06.818Z,7.77
2022-11-19T20:44:35.154Z,7.76
2022-11-19T20:47:05.250Z,7.78
2022-11-19T20:49:36.035Z,7.81
2022-11-19T20:52:05.599Z,7.80
2022-11-19T20:54:36.139Z,7.84
2022-11-19T20:57:04.959Z,7.80
2022-11-19T20:59:33.865Z,7.84
2022-11-19T21:02:02.565Z,7.77
2022-11-19T21:04:36.804Z,7.77
2022-11-19T21:07:06.875Z,7.86
2022-11-19T21:09:37.707Z,7.80
2022-11-19T21:12:06.480Z,7.80
2022-11-19T21:14:35.086Z,7.71
2022-11-19T21:17:03.370Z,7.63
2022-11-19T21:19:31.772Z,7.56
2022-11-19T21:22:00.337Z,7.44
2022-11-19T21:24:28.755Z,7.38
2022-11-19T21:26:59.463Z,7.39
2022-11-19T21:29:28.417Z,7.34
2022-11-19T21:31:56.836Z,7.29
2022-11-19T21:34:25.313Z,7.24
2022-11-19T21:36:53.873Z,7.20
2022-11-19T21:39:22.598Z,7.20
2022-11-19T21:41:51.471Z,7.27
2022-11-19T21:44:22.147Z,7.31
2022-11-19T21:46:50.694Z,7.32
2022-11-19T21:49:19.735Z,7.35
2022-11-19T21:51:49.256Z,7.36
2022-11-19T21:54:17.962Z,7.40
2022-11-19T21:56:47.450Z,7.46
2022-11-19T21:59:16.654Z,7.49
2022-11-19T22:01:51.784Z,7.53
2022-11-19T22:04:22.905Z,7.70
2022-11-19T22:06:51.413Z,7.74
2022-11-19T22:09:20.119Z,7.78
2022-11-19T22:11:48.725Z,7.80
2022-11-19T22:14:17.299Z,7.77
2022-11-19T22:16:47.970Z,7.84
2022-11-19T22:19:16.495Z,7.77
2022-11-19T22:21:46.941Z,7.75
2022-11-19T22:24:15.409Z,7.69
2022-11-19T22:26:44.080Z,7.71
2022-11-19T22:29:12.699Z,7.64
2022-11-19T22:31:41.104Z,7.62
2022-11-19T22:34:13.439Z,7.56
2022-11-19T22:36:43.160Z,7.53
2022-11-19T22:39:12.963Z,7.51
2022-11-19T22:41:41.677Z,7.47
2022-11-19T22:44:10.334Z,7.48
2022-11-19T22:46:39.123Z,7.51
2022-11-19T22:49:08.010Z,7.48
2022-11-19T22:51:38.258Z,7.45
2022-11-19T22:54:08.967Z,7.50
2022-11-19T22:56:41.334Z,7.50
2022-11-19T22:59:09.725Z,7.46
2022-11-19T23:01:38.252Z,7.51
2022-11-19T23:04:08.358Z,7.52
2022-11-19T23:06:38.907Z,7.50
2022-11-19T23:09:08.444Z,7.53
2022-11-19T23:11:54.716Z,7.62
2022-11-19T23:14:23.407Z,7.54
2022-11-19T23:16:51.888Z,7.50
2022-11-19T23:19:20.708Z,7.52
2022-11-19T23:21:51.102Z,7.48
2022-11-19T23:24:19.860Z,7.45
2022-11-19T23:26:48.316Z,7.44
2022-11-19T23:29:16.631Z,7.41
2022-11-19T23:31:45.246Z,7.37
2022-11-19T23:34:13.534Z,7.30
2022-11-19T23:36:42.921Z,7.22
2022-11-19T23:39:16.684Z,7.21
2022-11-19T23:41:46.817Z,7.17
2022-11-19T23:44:15.170Z,7.13
2022-11-19T23:46:43.556Z,7.10
2022-11-19T23:49:13.025Z,7.13
2022-11-19T23:51:41.748Z,7.13
2022-11-19T23:54:12.736Z,7.09
2022-11-19T23:56:47.823Z,7.04
2022-11-19T23:59:19.486Z,6.99
